sensor_id;sensor_type;location;lat;lon;timestamp;P1;durP1;ratioP1;P2;durP2;ratioP2
41643;SDS011;44236;48.098;11.582;2024-03-07T00:02:08;4.20;;;1.25;;
41643;SDS011;44236;48.098;11.582;2024-03-07T00:04:37;3.83;;;1.80;;
41643;SDS011;44236;48.098;11.582;2024-03-07T00:07:03;3.25;;;0.90;;
41643;SDS011;44236;48.098;11.582;2024-03-07T00:09:32;2.65;;;0.90;;
41643;SDS011;44236;48.098;11.582;2024-03-07T00:11:58;2.00;;;0.90;;
41643;SDS011;44236;48.098;11.582;2024-03-07T00:14:24;2.28;;;0.82;;
41643;SDS011;44236;48.098;11.582;2024-03-07T00:16:58;0.88;;;0.70;;
41643;SDS011;44236;48.098;11.582;2024-03-07T00:19:28;1.48;;;0.90;;
41643;SDS011;44236;48.098;11.582;2024-03-07T00:21:54;2.08;;;0.98;;
41643;SDS011;44236;48.098;11.582;2024-03-07T00:24:20;1.40;;;0.90;;
41643;SDS011;44236;48.098;11.582;2024-03-07T00:26:46;3.10;;;2.08;;
41643;SDS011;44236;48.098;11.582;2024-03-07T00:29:15;1.00;;;0.80;;
41643;SDS011;44236;48.098;11.582;2024-03-07T00:31:43;1.67;;;1.10;;
41643;SDS011;44236;48.098;11.582;2024-03-07T00:34:09;1.40;;;0.80;;
41643;SDS011;44236;48.098;11.582;2024-03-07T00:36:35;1.63;;;0.95;;
41643;SDS011;44236;48.098;11.582;2024-03-07T00:39:00;1.67;;;1.00;;
41643;SDS011;44236;48.098;11.582;2024-03-07T00:41:26;1.88;;;1.02;;
41643;SDS011;44236;48.098;11.582;2024-03-07T00:43:53;3.70;;;1.08;;
41643;SDS011;44236;48.098;11.582;2024-03-07T00:46:19;1.23;;;0.95;;
41643;SDS011;44236;48.098;11.582;2024-03-07T00:48:44;2.13;;;1.20;;
41643;SDS011;44236;48.098;11.582;2024-03-07T00:51:11;1.75;;;0.95;;
41643;SDS011;44236;48.098;11.582;2024-03-07T00:53:37;1.05;;;0.63;;
41643;SDS011;44236;48.098;11.582;2024-03-07T00:56:02;2.17;;;1.35;;
41643;SDS011;44236;48.098;11.582;2024-03-07T00:58:28;3.58;;;1.65;;
41643;SDS011;44236;48.098;11.582;2024-03-07T01:00:54;1.52;;;1.00;;
41643;SDS011;44236;48.098;11.582;2024-03-07T01:03:19;2.13;;;1.25;;
41643;SDS011;44236;48.098;11.582;2024-03-07T01:05:45;1.83;;;0.90;;
41643;SDS011;44236;48.098;11.582;2024-03-07T01:08:11;1.17;;;1.00;;
41643;SDS011;44236;48.098;11.582;2024-03-07T01:10:36;1.83;;;0.90;;
41643;SDS011;44236;48.098;11.582;2024-03-07T01:13:02;1.83;;;0.95;;
41643;SDS011;44236;48.098;11.582;2024-03-07T01:15:31;0.82;;;0.70;;
41643;SDS011;44236;48.098;11.582;2024-03-07T01:17:57;4.13;;;1.38;;
41643;SDS011;44236;48.098;11.582;2024-03-07T01:20:23;2.50;;;1.20;;
41643;SDS011;44236;48.098;11.582;2024-03-07T01:22:50;1.80;;;1.00;;
41643;SDS011;44236;48.098;11.582;2024-03-07T01:25:16;3.13;;;1.20;;
41643;SDS011;44236;48.098;11.582;2024-03-07T01:27:42;1.13;;;0.73;;
41643;SDS011;44236;48.098;11.582;2024-03-07T01:30:08;1.75;;;1.08;;
41643;SDS011;44236;48.098;11.582;2024-03-07T01:32:35;1.80;;;0.90;;
41643;SDS011;44236;48.098;11.582;2024-03-07T01:35:00;1.73;;;1.00;;
41643;SDS011;44236;48.098;11.582;2024-03-07T01:37:26;2.22;;;0.95;;
41643;SDS011;44236;48.098;11.582;2024-03-07T01:39:53;2.03;;;1.00;;
41643;SDS011;44236;48.098;11.582;2024-03-07T01:42:19;1.70;;;0.90;;
41643;SDS011;44236;48.098;11.582;2024-03-07T01:44:45;2.13;;;1.10;;
41643;SDS011;44236;48.098;11.582;2024-03-07T01:47:10;2.05;;;1.13;;
41643;SDS011;44236;48.098;11.582;2024-03-07T01:49:36;5.90;;;1.13;;
41643;SDS011;44236;48.098;11.582;2024-03-07T01:52:04;2.25;;;1.30;;
41643;SDS011;44236;48.098;11.582;2024-03-07T01:54:33;2.83;;;1.63;;
41643;SDS011;44236;48.098;11.582;2024-03-07T01:56:59;2.63;;;1.17;;
41643;SDS011;44236;48.098;11.582;2024-03-07T01:59:26;2.88;;;1.30;;
41643;SDS011;44236;48.098;11.582;2024-03-07T02:01:55;2.22;;;1.10;;
41643;SDS011;44236;48.098;11.582;2024-03-07T02:04:23;1.83;;;1.25;;
41643;SDS011;44236;48.098;11.582;2024-03-07T02:06:50;3.13;;;1.30;;
41643;SDS011;44236;48.098;11.582;2024-03-07T02:09:15;1.73;;;1.08;;
41643;SDS011;44236;48.098;11.582;2024-03-07T02:11:42;2.25;;;1.30;;
41643;SDS011;44236;48.098;11.582;2024-03-07T02:14:08;1.48;;;1.00;;
41643;SDS011;44236;48.098;11.582;2024-03-07T02:16:33;2.47;;;1.67;;
41643;SDS011;44236;48.098;11.582;2024-03-07T02:18:59;4.07;;;1.20;;
41643;SDS011;44236;48.098;11.582;2024-03-07T02:21:25;2.38;;;1.38;;
41643;SDS011;44236;48.098;11.582;2024-03-07T02:23:51;3.60;;;1.67;;
41643;SDS011;44236;48.098;11.582;2024-03-07T02:26:16;2.80;;;1.27;;
41643;SDS011;44236;48.098;11.582;2024-03-07T02:28:43;2.97;;;1.35;;
41643;SDS011;44236;48.098;11.582;2024-03-07T02:31:09;2.70;;;1.45;;
41643;SDS011;44236;48.098;11.582;2024-03-07T02:33:34;3.13;;;1.80;;
41643;SDS011;44236;48.098;11.582;2024-03-07T02:36:00;4.30;;;1.30;;
41643;SDS011;44236;48.098;11.582;2024-03-07T02:38:26;2.08;;;1.25;;
41643;SDS011;44236;48.098;11.582;2024-03-07T02:40:51;2.95;;;1.45;;
41643;SDS011;44236;48.098;11.582;2024-03-07T02:43:17;11.80;;;1.75;;
41643;SDS011;44236;48.098;11.582;2024-03-07T02:45:43;2.80;;;1.33;;
41643;SDS011;44236;48.098;11.582;2024-03-07T02:48:08;2.08;;;1.33;;
41643;SDS011;44236;48.098;11.582;2024-03-07T02:50:37;2.65;;;1.50;;
41643;SDS011;44236;48.098;11.582;2024-03-07T02:53:06;3.45;;;1.25;;
41643;SDS011;44236;48.098;11.582;2024-03-07T02:55:32;2.58;;;1.42;;
41643;SDS011;44236;48.098;11.582;2024-03-07T02:57:57;2.33;;;1.42;;
41643;SDS011;44236;48.098;11.582;2024-03-07T03:00:24;4.60;;;1.80;;
41643;SDS011;44236;48.098;11.582;2024-03-07T03:02:54;2.40;;;1.23;;
41643;SDS011;44236;48.098;11.582;2024-03-07T03:05:20;3.67;;;1.83;;
41643;SDS011;44236;48.098;11.582;2024-03-07T03:07:47;3.70;;;2.08;;
41643;SDS011;44236;48.098;11.582;2024-03-07T03:10:22;2.55;;;1.30;;
41643;SDS011;44236;48.098;11.582;2024-03-07T03:12:51;3.58;;;1.67;;
41643;SDS011;44236;48.098;11.582;2024-03-07T03:15:18;2.70;;;1.48;;
41643;SDS011;44236;48.098;11.582;2024-03-07T03:17:46;3.13;;;1.80;;
41643;SDS011;44236;48.098;11.582;2024-03-07T03:20:13;3.42;;;2.00;;
41643;SDS011;44236;48.098;11.582;2024-03-07T03:22:54;2.72;;;1.48;;
41643;SDS011;44236;48.098;11.582;2024-03-07T03:25:20;2.72;;;1.40;;
41643;SDS011;44236;48.098;11.582;2024-03-07T03:27:47;3.33;;;2.13;;
41643;SDS011;44236;48.098;11.582;2024-03-07T03:30:13;3.72;;;1.63;;
41643;SDS011;44236;48.098;11.582;2024-03-07T03:32:39;3.45;;;1.40;;
41643;SDS011;44236;48.098;11.582;2024-03-07T03:35:06;2.47;;;1.65;;
41643;SDS011;44236;48.098;11.582;2024-03-07T03:37:38;2.92;;;1.52;;
41643;SDS011;44236;48.098;11.582;2024-03-07T03:40:05;3.42;;;2.03;;
41643;SDS011;44236;48.098;11.582;2024-03-07T03:42:31;3.97;;;1.70;;
41643;SDS011;44236;48.098;11.582;2024-03-07T03:44:57;3.75;;;1.85;;
41643;SDS011;44236;48.098;11.582;2024-03-07T03:47:22;3.40;;;1.83;;
41643;SDS011;44236;48.098;11.582;2024-03-07T03:49:48;3.33;;;1.85;;
41643;SDS011;44236;48.098;11.582;2024-03-07T03:52:14;4.07;;;2.25;;
41643;SDS011;44236;48.098;11.582;2024-03-07T03:54:40;4.43;;;1.77;;
41643;SDS011;44236;48.098;11.582;2024-03-07T03:57:05;4.00;;;1.50;;
41643;SDS011;44236;48.098;11.582;2024-03-07T03:59:31;4.68;;;2.47;;
41643;SDS011;44236;48.098;11.582;2024-03-07T04:01:56;4.07;;;2.35;;
41643;SDS011;44236;48.098;11.582;2024-03-07T04:04:22;3.90;;;2.25;;
41643;SDS011;44236;48.098;11.582;2024-03-07T04:06:50;4.35;;;2.42;;
41643;SDS011;44236;48.098;11.582;2024-03-07T04:09:16;4.63;;;2.63;;
41643;SDS011;44236;48.098;11.582;2024-03-07T04:11:44;5.20;;;2.78;;
41643;SDS011;44236;48.098;11.582;2024-03-07T04:14:10;3.88;;;2.63;;
41643;SDS011;44236;48.098;11.582;2024-03-07T04:16:36;4.93;;;3.40;;
41643;SDS011;44236;48.098;11.582;2024-03-07T04:19:01;7.57;;;3.85;;
41643;SDS011;44236;48.098;11.582;2024-03-07T04:21:27;6.97;;;3.55;;
41643;SDS011;44236;48.098;11.582;2024-03-07T04:23:53;5.65;;;3.70;;
41643;SDS011;44236;48.098;11.582;2024-03-07T04:26:18;5.75;;;3.53;;
41643;SDS011;44236;48.098;11.582;2024-03-07T04:28:44;8.27;;;3.67;;
41643;SDS011;44236;48.098;11.582;2024-03-07T04:31:10;6.05;;;3.47;;
41643;SDS011;44236;48.098;11.582;2024-03-07T04:33:35;4.97;;;3.10;;
41643;SDS011;44236;48.098;11.582;2024-03-07T04:36:01;5.20;;;3.08;;
41643;SDS011;44236;48.098;11.582;2024-03-07T04:38:27;6.05;;;3.95;;
41643;SDS011;44236;48.098;11.582;2024-03-07T04:40:53;4.95;;;3.13;;
41643;SDS011;44236;48.098;11.582;2024-03-07T04:43:19;6.07;;;3.58;;
41643;SDS011;44236;48.098;11.582;2024-03-07T04:45:45;5.57;;;3.17;;
41643;SDS011;44236;48.098;11.582;2024-03-07T04:48:11;6.10;;;3.17;;
41643;SDS011;44236;48.098;11.582;2024-03-07T04:50:37;5.47;;;3.25;;
41643;SDS011;44236;48.098;11.582;2024-03-07T04:53:03;6.43;;;2.97;;
41643;SDS011;44236;48.098;11.582;2024-03-07T04:55:28;5.20;;;3.00;;
41643;SDS011;44236;48.098;11.582;2024-03-07T04:57:54;5.82;;;3.28;;
41643;SDS011;44236;48.098;11.582;2024-03-07T05:00:19;6.75;;;4.05;;
41643;SDS011;44236;48.098;11.582;2024-03-07T05:02:46;5.65;;;3.90;;
41643;SDS011;44236;48.098;11.582;2024-03-07T05:05:12;4.97;;;3.13;;
41643;SDS011;44236;48.098;11.582;2024-03-07T05:07:38;5.88;;;3.75;;
41643;SDS011;44236;48.098;11.582;2024-03-07T05:10:05;5.90;;;3.80;;
41643;SDS011;44236;48.098;11.582;2024-03-07T05:12:32;6.38;;;3.70;;
41643;SDS011;44236;48.098;11.582;2024-03-07T05:14:58;7.45;;;4.10;;
41643;SDS011;44236;48.098;11.582;2024-03-07T05:17:23;7.97;;;4.20;;
41643;SDS011;44236;48.098;11.582;2024-03-07T05:19:49;7.57;;;4.47;;
41643;SDS011;44236;48.098;11.582;2024-03-07T05:22:15;6.47;;;3.90;;
41643;SDS011;44236;48.098;11.582;2024-03-07T05:24:44;7.15;;;4.15;;
41643;SDS011;44236;48.098;11.582;2024-03-07T05:27:10;7.78;;;4.60;;
41643;SDS011;44236;48.098;11.582;2024-03-07T05:29:37;6.65;;;4.00;;
41643;SDS011;44236;48.098;11.582;2024-03-07T05:34:48;15.52;;;4.68;;
41643;SDS011;44236;48.098;11.582;2024-03-07T05:37:14;5.78;;;3.88;;
41643;SDS011;44236;48.098;11.582;2024-03-07T05:39:39;6.43;;;3.97;;
41643;SDS011;44236;48.098;11.582;2024-03-07T05:42:05;7.22;;;4.95;;
41643;SDS011;44236;48.098;11.582;2024-03-07T05:44:32;8.88;;;4.20;;
41643;SDS011;44236;48.098;11.582;2024-03-07T05:46:58;6.55;;;3.78;;
41643;SDS011;44236;48.098;11.582;2024-03-07T05:49:24;6.68;;;4.22;;
41643;SDS011;44236;48.098;11.582;2024-03-07T05:51:52;6.38;;;4.35;;
41643;SDS011;44236;48.098;11.582;2024-03-07T05:54:18;7.50;;;4.57;;
41643;SDS011;44236;48.098;11.582;2024-03-07T05:56:43;6.60;;;3.85;;
41643;SDS011;44236;48.098;11.582;2024-03-07T05:59:09;7.28;;;4.88;;
41643;SDS011;44236;48.098;11.582;2024-03-07T06:01:35;7.70;;;4.40;;
41643;SDS011;44236;48.098;11.582;2024-03-07T06:04:02;7.50;;;4.18;;
41643;SDS011;44236;48.098;11.582;2024-03-07T06:06:30;14.40;;;4.70;;
41643;SDS011;44236;48.098;11.582;2024-03-07T06:09:00;16.33;;;4.93;;
41643;SDS011;44236;48.098;11.582;2024-03-07T06:11:39;9.77;;;4.28;;
41643;SDS011;44236;48.098;11.582;2024-03-07T06:14:08;8.02;;;3.75;;
41643;SDS011;44236;48.098;11.582;2024-03-07T06:16:36;7.75;;;4.00;;
41643;SDS011;44236;48.098;11.582;2024-03-07T06:19:03;8.30;;;5.10;;
41643;SDS011;44236;48.098;11.582;2024-03-07T06:21:39;12.98;;;5.40;;
41643;SDS011;44236;48.098;11.582;2024-03-07T06:24:06;6.47;;;4.03;;
41643;SDS011;44236;48.098;11.582;2024-03-07T06:26:33;8.43;;;5.20;;
41643;SDS011;44236;48.098;11.582;2024-03-07T06:29:10;11.25;;;5.38;;
41643;SDS011;44236;48.098;11.582;2024-03-07T06:31:40;9.40;;;5.38;;
41643;SDS011;44236;48.098;11.582;2024-03-07T06:34:07;10.15;;;5.32;;
41643;SDS011;44236;48.098;11.582;2024-03-07T06:36:35;10.48;;;5.40;;
41643;SDS011;44236;48.098;11.582;2024-03-07T06:39:01;9.43;;;5.57;;
41643;SDS011;44236;48.098;11.582;2024-03-07T06:41:31;10.32;;;5.22;;
41643;SDS011;44236;48.098;11.582;2024-03-07T06:44:00;7.82;;;4.93;;
41643;SDS011;44236;48.098;11.582;2024-03-07T06:46:26;13.52;;;6.35;;
41643;SDS011;44236;48.098;11.582;2024-03-07T06:48:51;14.85;;;6.75;;
41643;SDS011;44236;48.098;11.582;2024-03-07T06:51:17;12.70;;;6.18;;
41643;SDS011;44236;48.098;11.582;2024-03-07T06:53:43;15.32;;;5.70;;
41643;SDS011;44236;48.098;11.582;2024-03-07T06:56:11;9.25;;;5.88;;
41643;SDS011;44236;48.098;11.582;2024-03-07T06:58:38;9.48;;;5.38;;
41643;SDS011;44236;48.098;11.582;2024-03-07T07:01:03;8.60;;;5.18;;
41643;SDS011;44236;48.098;11.582;2024-03-07T07:03:34;8.80;;;5.97;;
41643;SDS011;44236;48.098;11.582;2024-03-07T07:06:00;9.27;;;5.95;;
41643;SDS011;44236;48.098;11.582;2024-03-07T07:08:26;10.00;;;6.20;;
41643;SDS011;44236;48.098;11.582;2024-03-07T07:10:54;9.27;;;5.28;;
41643;SDS011;44236;48.098;11.582;2024-03-07T07:13:21;10.32;;;6.38;;
41643;SDS011;44236;48.098;11.582;2024-03-07T07:15:47;10.77;;;6.47;;
41643;SDS011;44236;48.098;11.582;2024-03-07T07:18:13;12.70;;;6.80;;
41643;SDS011;44236;48.098;11.582;2024-03-07T07:20:40;12.60;;;6.63;;
41643;SDS011;44236;48.098;11.582;2024-03-07T07:23:06;10.88;;;6.65;;
41643;SDS011;44236;48.098;11.582;2024-03-07T07:25:32;11.77;;;6.38;;
41643;SDS011;44236;48.098;11.582;2024-03-07T07:27:57;9.68;;;6.35;;
41643;SDS011;44236;48.098;11.582;2024-03-07T07:30:23;11.63;;;6.25;;
41643;SDS011;44236;48.098;11.582;2024-03-07T07:32:51;12.73;;;6.95;;
41643;SDS011;44236;48.098;11.582;2024-03-07T07:35:17;8.60;;;5.72;;
41643;SDS011;44236;48.098;11.582;2024-03-07T07:37:45;11.27;;;7.15;;
41643;SDS011;44236;48.098;11.582;2024-03-07T07:40:17;10.00;;;6.03;;
41643;SDS011;44236;48.098;11.582;2024-03-07T07:42:44;9.80;;;5.85;;
41643;SDS011;44236;48.098;11.582;2024-03-07T07:45:11;8.27;;;5.40;;
41643;SDS011;44236;48.098;11.582;2024-03-07T07:52:42;11.98;;;5.97;;
41643;SDS011;44236;48.098;11.582;2024-03-07T07:55:08;8.80;;;6.03;;
41643;SDS011;44236;48.098;11.582;2024-03-07T07:57:43;16.83;;;7.35;;
41643;SDS011;44236;48.098;11.582;2024-03-07T08:00:10;11.52;;;6.95;;
41643;SDS011;44236;48.098;11.582;2024-03-07T08:02:37;12.20;;;6.70;;
41643;SDS011;44236;48.098;11.582;2024-03-07T08:05:02;10.27;;;6.43;;
41643;SDS011;44236;48.098;11.582;2024-03-07T08:07:30;10.20;;;7.00;;
41643;SDS011;44236;48.098;11.582;2024-03-07T08:09:56;9.70;;;6.07;;
41643;SDS011;44236;48.098;11.582;2024-03-07T08:12:21;11.00;;;6.50;;
41643;SDS011;44236;48.098;11.582;2024-03-07T08:14:47;9.93;;;6.28;;
41643;SDS011;44236;48.098;11.582;2024-03-07T08:17:13;10.15;;;6.07;;
41643;SDS011;44236;48.098;11.582;2024-03-07T08:19:39;12.25;;;7.10;;
41643;SDS011;44236;48.098;11.582;2024-03-07T08:22:05;14.35;;;7.68;;
41643;SDS011;44236;48.098;11.582;2024-03-07T08:24:31;11.18;;;6.93;;
41643;SDS011;44236;48.098;11.582;2024-03-07T08:26:57;10.98;;;7.15;;
41643;SDS011;44236;48.098;11.582;2024-03-07T08:29:22;10.93;;;6.90;;
41643;SDS011;44236;48.098;11.582;2024-03-07T08:31:49;10.68;;;6.65;;
41643;SDS011;44236;48.098;11.582;2024-03-07T08:34:14;11.48;;;6.88;;
41643;SDS011;44236;48.098;11.582;2024-03-07T08:36:40;10.75;;;6.07;;
41643;SDS011;44236;48.098;11.582;2024-03-07T08:39:06;11.90;;;6.93;;
41643;SDS011;44236;48.098;11.582;2024-03-07T08:41:36;14.82;;;6.38;;
41643;SDS011;44236;48.098;11.582;2024-03-07T08:44:06;9.85;;;6.85;;
41643;SDS011;44236;48.098;11.582;2024-03-07T08:46:31;10.40;;;6.65;;
41643;SDS011;44236;48.098;11.582;2024-03-07T08:48:57;11.43;;;6.57;;
41643;SDS011;44236;48.098;11.582;2024-03-07T08:51:23;14.65;;;6.85;;
41643;SDS011;44236;48.098;11.582;2024-03-07T08:53:48;11.07;;;7.68;;
41643;SDS011;44236;48.098;11.582;2024-03-07T08:56:15;14.27;;;7.00;;
41643;SDS011;44236;48.098;11.582;2024-03-07T08:58:41;12.68;;;7.95;;
41643;SDS011;44236;48.098;11.582;2024-03-07T09:01:08;12.32;;;6.85;;
41643;SDS011;44236;48.098;11.582;2024-03-07T09:03:34;11.45;;;6.75;;
41643;SDS011;44236;48.098;11.582;2024-03-07T09:05:59;14.57;;;7.10;;
41643;SDS011;44236;48.098;11.582;2024-03-07T09:08:25;10.30;;;6.63;;
41643;SDS011;44236;48.098;11.582;2024-03-07T09:10:51;15.55;;;7.47;;
41643;SDS011;44236;48.098;11.582;2024-03-07T09:13:20;11.95;;;7.22;;
41643;SDS011;44236;48.098;11.582;2024-03-07T09:15:48;11.57;;;7.55;;
41643;SDS011;44236;48.098;11.582;2024-03-07T09:18:14;12.15;;;7.45;;
41643;SDS011;44236;48.098;11.582;2024-03-07T09:20:41;14.45;;;7.15;;
41643;SDS011;44236;48.098;11.582;2024-03-07T09:23:06;13.30;;;7.15;;
41643;SDS011;44236;48.098;11.582;2024-03-07T09:25:32;13.73;;;7.35;;
41643;SDS011;44236;48.098;11.582;2024-03-07T09:27:58;16.05;;;6.85;;
41643;SDS011;44236;48.098;11.582;2024-03-07T09:30:25;11.95;;;7.35;;
41643;SDS011;44236;48.098;11.582;2024-03-07T09:32:52;12.55;;;7.43;;
41643;SDS011;44236;48.098;11.582;2024-03-07T09:35:21;10.98;;;7.10;;
41643;SDS011;44236;48.098;11.582;2024-03-07T09:37:47;13.13;;;8.65;;
41643;SDS011;44236;48.098;11.582;2024-03-07T09:40:13;16.55;;;7.00;;
41643;SDS011;44236;48.098;11.582;2024-03-07T09:42:45;10.90;;;7.57;;
41643;SDS011;44236;48.098;11.582;2024-03-07T09:45:19;11.45;;;7.32;;
41643;SDS011;44236;48.098;11.582;2024-03-07T09:47:46;11.45;;;7.10;;
41643;SDS011;44236;48.098;11.582;2024-03-07T09:50:14;10.90;;;8.00;;
41643;SDS011;44236;48.098;11.582;2024-03-07T09:52:44;11.32;;;6.47;;
41643;SDS011;44236;48.098;11.582;2024-03-07T09:55:11;11.30;;;7.20;;
41643;SDS011;44236;48.098;11.582;2024-03-07T09:57:38;12.85;;;7.72;;
41643;SDS011;44236;48.098;11.582;2024-03-07T10:00:05;12.60;;;8.52;;
41643;SDS011;44236;48.098;11.582;2024-03-07T10:05:03;13.57;;;6.87;;
41643;SDS011;44236;48.098;11.582;2024-03-07T10:07:30;10.20;;;6.55;;
41643;SDS011;44236;48.098;11.582;2024-03-07T10:09:56;11.98;;;7.15;;
41643;SDS011;44236;48.098;11.582;2024-03-07T10:12:24;13.55;;;7.35;;
41643;SDS011;44236;48.098;11.582;2024-03-07T10:14:50;10.65;;;7.05;;
41643;SDS011;44236;48.098;11.582;2024-03-07T10:17:23;11.02;;;6.30;;
41643;SDS011;44236;48.098;11.582;2024-03-07T10:19:51;11.07;;;7.05;;
41643;SDS011;44236;48.098;11.582;2024-03-07T10:22:18;13.20;;;7.80;;
41643;SDS011;44236;48.098;11.582;2024-03-07T10:24:51;10.45;;;6.65;;
41643;SDS011;44236;48.098;11.582;2024-03-07T10:27:19;13.95;;;7.47;;
41643;SDS011;44236;48.098;11.582;2024-03-07T10:29:48;10.15;;;6.55;;
41643;SDS011;44236;48.098;11.582;2024-03-07T10:32:19;12.98;;;7.82;;
41643;SDS011;44236;48.098;11.582;2024-03-07T10:34:45;12.93;;;7.45;;
41643;SDS011;44236;48.098;11.582;2024-03-07T10:37:12;11.02;;;6.95;;
41643;SDS011;44236;48.098;11.582;2024-03-07T10:39:41;11.57;;;7.35;;
41643;SDS011;44236;48.098;11.582;2024-03-07T10:42:12;11.20;;;7.30;;
41643;SDS011;44236;48.098;11.582;2024-03-07T10:44:41;10.05;;;7.15;;
41643;SDS011;44236;48.098;11.582;2024-03-07T10:47:21;11.65;;;6.97;;
41643;SDS011;44236;48.098;11.582;2024-03-07T10:52:32;10.68;;;6.88;;
41643;SDS011;44236;48.098;11.582;2024-03-07T10:58:01;10.75;;;6.63;;
41643;SDS011;44236;48.098;11.582;2024-03-07T11:00:32;10.98;;;6.70;;
41643;SDS011;44236;48.098;11.582;2024-03-07T11:03:01;10.52;;;6.57;;
41643;SDS011;44236;48.098;11.582;2024-03-07T11:05:32;13.50;;;7.20;;
41643;SDS011;44236;48.098;11.582;2024-03-07T11:07:59;9.38;;;6.35;;
41643;SDS011;44236;48.098;11.582;2024-03-07T11:10:36;9.98;;;6.43;;
41643;SDS011;44236;48.098;11.582;2024-03-07T11:13:03;13.07;;;8.25;;
41643;SDS011;44236;48.098;11.582;2024-03-07T11:15:30;10.70;;;7.25;;
41643;SDS011;44236;48.098;11.582;2024-03-07T11:17:58;9.80;;;6.60;;
41643;SDS011;44236;48.098;11.582;2024-03-07T11:20:24;10.70;;;6.60;;
41643;SDS011;44236;48.098;11.582;2024-03-07T11:22:51;11.85;;;6.57;;
41643;SDS011;44236;48.098;11.582;2024-03-07T11:25:21;9.90;;;6.57;;
41643;SDS011;44236;48.098;11.582;2024-03-07T11:27:51;12.55;;;7.35;;
41643;SDS011;44236;48.098;11.582;2024-03-07T11:30:19;10.40;;;7.50;;
41643;SDS011;44236;48.098;11.582;2024-03-07T11:32:46;10.75;;;6.72;;
41643;SDS011;44236;48.098;11.582;2024-03-07T11:35:14;9.77;;;6.22;;
41643;SDS011;44236;48.098;11.582;2024-03-07T11:37:41;15.23;;;7.05;;
41643;SDS011;44236;48.098;11.582;2024-03-07T11:42:51;9.55;;;6.68;;
41643;SDS011;44236;48.098;11.582;2024-03-07T11:45:18;12.25;;;7.53;;
41643;SDS011;44236;48.098;11.582;2024-03-07T11:47:55;10.40;;;7.35;;
41643;SDS011;44236;48.098;11.582;2024-03-07T11:50:28;12.93;;;7.57;;
41643;SDS011;44236;48.098;11.582;2024-03-07T11:52:59;10.93;;;6.47;;
41643;SDS011;44236;48.098;11.582;2024-03-07T11:55:26;9.25;;;6.63;;
41643;SDS011;44236;48.098;11.582;2024-03-07T11:57:53;9.23;;;6.30;;
41643;SDS011;44236;48.098;11.582;2024-03-07T12:00:19;11.85;;;6.72;;
41643;SDS011;44236;48.098;11.582;2024-03-07T12:02:48;12.80;;;7.70;;
41643;SDS011;44236;48.098;11.582;2024-03-07T12:05:14;11.07;;;6.70;;
41643;SDS011;44236;48.098;11.582;2024-03-07T12:07:41;9.52;;;6.60;;
41643;SDS011;44236;48.098;11.582;2024-03-07T12:10:08;12.38;;;6.57;;
41643;SDS011;44236;48.098;11.582;2024-03-07T12:12:35;8.93;;;6.18;;
41643;SDS011;44236;48.098;11.582;2024-03-07T12:15:04;10.10;;;6.10;;
41643;SDS011;44236;48.098;11.582;2024-03-07T12:17:37;11.93;;;6.72;;
41643;SDS011;44236;48.098;11.582;2024-03-07T12:20:05;9.18;;;6.43;;
41643;SDS011;44236;48.098;11.582;2024-03-07T12:22:49;10.05;;;6.25;;
41643;SDS011;44236;48.098;11.582;2024-03-07T12:25:37;10.02;;;6.45;;
41643;SDS011;44236;48.098;11.582;2024-03-07T12:28:04;9.00;;;6.43;;
41643;SDS011;44236;48.098;11.582;2024-03-07T12:30:34;13.23;;;7.13;;
41643;SDS011;44236;48.098;11.582;2024-03-07T12:33:01;10.35;;;6.18;;
41643;SDS011;44236;48.098;11.582;2024-03-07T12:35:32;9.77;;;6.03;;
41643;SDS011;44236;48.098;11.582;2024-03-07T12:37:58;11.40;;;6.10;;
41643;SDS011;44236;48.098;11.582;2024-03-07T12:40:25;11.60;;;6.60;;
41643;SDS011;44236;48.098;11.582;2024-03-07T12:42:54;10.38;;;6.88;;
41643;SDS011;44236;48.098;11.582;2024-03-07T12:45:19;10.13;;;6.85;;
41643;SDS011;44236;48.098;11.582;2024-03-07T12:47:48;10.38;;;6.68;;
41643;SDS011;44236;48.098;11.582;2024-03-07T12:52:46;8.15;;;5.45;;
41643;SDS011;44236;48.098;11.582;2024-03-07T12:55:15;9.73;;;6.47;;
41643;SDS011;44236;48.098;11.582;2024-03-07T12:57:47;9.38;;;6.60;;
41643;SDS011;44236;48.098;11.582;2024-03-07T13:00:14;10.23;;;6.50;;
41643;SDS011;44236;48.098;11.582;2024-03-07T13:02:47;9.90;;;7.07;;
41643;SDS011;44236;48.098;11.582;2024-03-07T13:05:14;9.88;;;6.47;;
41643;SDS011;44236;48.098;11.582;2024-03-07T13:07:51;8.70;;;6.82;;
41643;SDS011;44236;48.098;11.582;2024-03-07T13:10:17;11.73;;;6.82;;
41643;SDS011;44236;48.098;11.582;2024-03-07T13:12:46;9.90;;;6.32;;
41643;SDS011;44236;48.098;11.582;2024-03-07T13:15:14;9.45;;;6.07;;
41643;SDS011;44236;48.098;11.582;2024-03-07T13:17:40;9.32;;;6.20;;
41643;SDS011;44236;48.098;11.582;2024-03-07T13:20:08;9.10;;;6.22;;
41643;SDS011;44236;48.098;11.582;2024-03-07T13:22:40;10.88;;;6.93;;
41643;SDS011;44236;48.098;11.582;2024-03-07T13:25:18;9.63;;;6.60;;
41643;SDS011;44236;48.098;11.582;2024-03-07T13:27:57;9.98;;;7.18;;
41643;SDS011;44236;48.098;11.582;2024-03-07T13:30:39;11.00;;;7.18;;
41643;SDS011;44236;48.098;11.582;2024-03-07T13:33:13;13.23;;;7.05;;
41643;SDS011;44236;48.098;11.582;2024-03-07T13:35:39;9.45;;;5.70;;
41643;SDS011;44236;48.098;11.582;2024-03-07T13:38:05;11.18;;;6.93;;
41643;SDS011;44236;48.098;11.582;2024-03-07T13:40:31;10.77;;;6.88;;
41643;SDS011;44236;48.098;11.582;2024-03-07T13:43:00;8.38;;;6.25;;
41643;SDS011;44236;48.098;11.582;2024-03-07T13:47:53;8.18;;;5.68;;
41643;SDS011;44236;48.098;11.582;2024-03-07T13:50:20;9.43;;;6.45;;
41643;SDS011;44236;48.098;11.582;2024-03-07T13:52:54;8.25;;;5.53;;
41643;SDS011;44236;48.098;11.582;2024-03-07T14:06:25;9.90;;;6.05;;
41643;SDS011;44236;48.098;11.582;2024-03-07T14:31:56;21.05;;;13.18;;
41643;SDS011;44236;48.098;11.582;2024-03-07T14:37:46;18.85;;;9.88;;
41643;SDS011;44236;48.098;11.582;2024-03-07T14:40:28;24.15;;;14.15;;
41643;SDS011;44236;48.098;11.582;2024-03-07T14:42:54;26.50;;;15.70;;
41643;SDS011;44236;48.098;11.582;2024-03-07T14:45:25;29.30;;;17.65;;
41643;SDS011;44236;48.098;11.582;2024-03-07T14:47:57;31.33;;;16.85;;
41643;SDS011;44236;48.098;11.582;2024-03-07T14:50:22;26.27;;;14.23;;
41643;SDS011;44236;48.098;11.582;2024-03-07T14:52:51;18.50;;;10.10;;
41643;SDS011;44236;48.098;11.582;2024-03-07T14:55:18;18.98;;;9.40;;
41643;SDS011;44236;48.098;11.582;2024-03-07T14:57:44;16.75;;;9.38;;
41643;SDS011;44236;48.098;11.582;2024-03-07T15:00:11;14.75;;;8.73;;
41643;SDS011;44236;48.098;11.582;2024-03-07T15:02:52;15.10;;;8.83;;
41643;SDS011;44236;48.098;11.582;2024-03-07T15:05:24;15.45;;;8.10;;
41643;SDS011;44236;48.098;11.582;2024-03-07T15:07:50;13.68;;;9.63;;
41643;SDS011;44236;48.098;11.582;2024-03-07T15:10:19;13.98;;;8.60;;
41643;SDS011;44236;48.098;11.582;2024-03-07T15:12:51;13.45;;;8.55;;
41643;SDS011;44236;48.098;11.582;2024-03-07T15:15:18;15.57;;;8.40;;
41643;SDS011;44236;48.098;11.582;2024-03-07T15:17:45;17.58;;;8.45;;
41643;SDS011;44236;48.098;11.582;2024-03-07T15:20:14;12.85;;;7.00;;
41643;SDS011;44236;48.098;11.582;2024-03-07T15:23:00;16.58;;;8.18;;
41643;SDS011;44236;48.098;11.582;2024-03-07T15:25:28;19.55;;;9.73;;
41643;SDS011;44236;48.098;11.582;2024-03-07T15:27:58;13.52;;;7.45;;
41643;SDS011;44236;48.098;11.582;2024-03-07T15:30:25;16.05;;;7.90;;
41643;SDS011;44236;48.098;11.582;2024-03-07T15:32:57;13.35;;;7.28;;